sensor_id;sensor_type;location;lat;lon;timestamp;pressure;altitude;pressure_sealevel;temperature;humidity
3780;BME280;1905;52.482;9.802;2022-09-09T00:00:49;100395.91;;;15.96;69.46
3780;BME280;1905;52.482;9.802;2022-09-09T00:03:24;100392.72;;;15.91;69.82
3780;BME280;1905;52.482;9.802;2022-09-09T00:05:59;100393.47;;;15.93;69.31
3780;BME280;1905;52.482;9.802;2022-09-09T00:08:38;100397.31;;;15.89;69.75
3780;BME280;1905;52.482;9.802;2022-09-09T00:11:12;100386.66;;;15.89;69.53
3780;BME280;1905;52.482;9.802;2022-09-09T00:13:46;100393.88;;;15.87;69.71
3780;BME280;1905;52.482;9.802;2022-09-09T00:16:19;100388.81;;;15.84;69.42
3780;BME280;1905;52.482;9.802;2022-09-09T00:18:55;100392.41;;;15.83;69.72
3780;BME280;1905;52.482;9.802;2022-09-09T00:21:33;100389.97;;;15.80;69.54
3780;BME280;1905;52.482;9.802;2022-09-09T00:24:09;100390.91;;;15.79;69.53
3780;BME280;1905;52.482;9.802;2022-09-09T00:26:44;100386.56;;;15.78;70.07
3780;BME280;1905;52.482;9.802;2022-09-09T00:29:20;100388.47;;;15.76;69.94
3780;BME280;1905;52.482;9.802;2022-09-09T00:31:51;100388.69;;;15.73;70.19
3780;BME280;1905;52.482;9.802;2022-09-09T00:34:24;100387.94;;;15.71;70.06
3780;BME280;1905;52.482;9.802;2022-09-09T00:36:55;100382.41;;;15.74;70.28
3780;BME280;1905;52.482;9.802;2022-09-09T00:39:32;100388.78;;;15.72;69.68
3780;BME280;1905;52.482;9.802;2022-09-09T00:42:13;100386.25;;;15.70;69.84
3780;BME280;1905;52.482;9.802;2022-09-09T00:44:51;100387.59;;;15.63;70.10
3780;BME280;1905;52.482;9.802;2022-09-09T00:47:33;100391.13;;;15.64;69.96
3780;BME280;1905;52.482;9.802;2022-09-09T00:50:17;100399.25;;;15.62;70.13
3780;BME280;1905;52.482;9.802;2022-09-09T00:52:57;100392.19;;;15.61;69.67
3780;BME280;1905;52.482;9.802;2022-09-09T00:55:32;100388.78;;;15.59;69.77
3780;BME280;1905;52.482;9.802;2022-09-09T00:58:06;100383.69;;;15.56;69.85
3780;BME280;1905;52.482;9.802;2022-09-09T01:00:39;100385.41;;;15.57;70.39
3780;BME280;1905;52.482;9.802;2022-09-09T01:03:19;100391.75;;;15.55;69.73
3780;BME280;1905;52.482;9.802;2022-09-09T01:06:01;100389.41;;;15.50;70.10
3780;BME280;1905;52.482;9.802;2022-09-09T01:11:43;100389.63;;;15.47;69.69
3780;BME280;1905;52.482;9.802;2022-09-09T01:14:29;100384.38;;;15.45;70.32
3780;BME280;1905;52.482;9.802;2022-09-09T01:17:03;100384.59;;;15.42;70.31
3780;BME280;1905;52.482;9.802;2022-09-09T01:19:43;100390.00;;;15.41;70.39
3780;BME280;1905;52.482;9.802;2022-09-09T01:22:22;100393.53;;;15.41;70.32
3780;BME280;1905;52.482;9.802;2022-09-09T01:25:11;100397.25;;;15.39;70.16
3780;BME280;1905;52.482;9.802;2022-09-09T01:27:56;100384.91;;;15.38;70.31
3780;BME280;1905;52.482;9.802;2022-09-09T01:30:26;100388.72;;;15.34;70.43
3780;BME280;1905;52.482;9.802;2022-09-09T01:32:57;100384.16;;;15.36;69.92
3780;BME280;1905;52.482;9.802;2022-09-09T01:35:37;100378.09;;;15.34;70.52
3780;BME280;1905;52.482;9.802;2022-09-09T01:38:07;100375.53;;;15.32;70.21
3780;BME280;1905;52.482;9.802;2022-09-09T01:40:35;100376.69;;;15.28;70.50
3780;BME280;1905;52.482;9.802;2022-09-09T01:43:05;100373.09;;;15.29;70.28
3780;BME280;1905;52.482;9.802;2022-09-09T01:45:35;100376.81;;;15.27;70.04
3780;BME280;1905;52.482;9.802;2022-09-09T01:48:03;100367.84;;;15.28;69.91
3780;BME280;1905;52.482;9.802;2022-09-09T01:50:46;100377.75;;;15.26;69.84
3780;BME280;1905;52.482;9.802;2022-09-09T01:53:15;100377.00;;;15.24;70.29
3780;BME280;1905;52.482;9.802;2022-09-09T01:55:51;100379.75;;;15.22;69.88
3780;BME280;1905;52.482;9.802;2022-09-09T01:58:32;100383.28;;;15.23;70.32
3780;BME280;1905;52.482;9.802;2022-09-09T02:01:07;100382.75;;;15.18;69.90
3780;BME280;1905;52.482;9.802;2022-09-09T02:03:44;100387.13;;;15.19;70.01
3780;BME280;1905;52.482;9.802;2022-09-09T02:06:26;100383.69;;;15.17;70.08
3780;BME280;1905;52.482;9.802;2022-09-09T02:09:04;100386.53;;;15.14;70.19
3780;BME280;1905;52.482;9.802;2022-09-09T02:11:33;100383.88;;;15.14;70.04
3780;BME280;1905;52.482;9.802;2022-09-09T02:14:17;100386.53;;;15.14;69.77
3780;BME280;1905;52.482;9.802;2022-09-09T02:16:52;100378.56;;;15.14;70.42
3780;BME280;1905;52.482;9.802;2022-09-09T02:19:30;100376.78;;;15.14;70.19
3780;BME280;1905;52.482;9.802;2022-09-09T02:22:06;100378.69;;;15.12;70.17
3780;BME280;1905;52.482;9.802;2022-09-09T02:24:36;100385.72;;;15.13;70.04
3780;BME280;1905;52.482;9.802;2022-09-09T02:27:16;100381.47;;;15.11;69.85
3780;BME280;1905;52.482;9.802;2022-09-09T02:29:49;100384.22;;;15.09;69.70
3780;BME280;1905;52.482;9.802;2022-09-09T02:32:30;100379.00;;;15.08;70.12
3780;BME280;1905;52.482;9.802;2022-09-09T02:35:04;100388.88;;;15.06;70.00
3780;BME280;1905;52.482;9.802;2022-09-09T02:37:37;100385.38;;;15.05;70.10
3780;BME280;1905;52.482;9.802;2022-09-09T02:40:08;100383.56;;;15.06;70.26
3780;BME280;1905;52.482;9.802;2022-09-09T02:42:42;100376.53;;;15.05;69.99
3780;BME280;1905;52.482;9.802;2022-09-09T02:45:13;100377.50;;;15.04;70.34
3780;BME280;1905;52.482;9.802;2022-09-09T02:47:49;100378.47;;;15.03;69.82
3780;BME280;1905;52.482;9.802;2022-09-09T02:50:25;100372.28;;;15.02;70.45
3780;BME280;1905;52.482;9.802;2022-09-09T02:53:06;100365.25;;;15.01;69.56
3780;BME280;1905;52.482;9.802;2022-09-09T02:55:40;100376.75;;;15.02;70.21
3780;BME280;1905;52.482;9.802;2022-09-09T02:58:14;100375.88;;;15.01;70.12
3780;BME280;1905;52.482;9.802;2022-09-09T03:00:50;100373.34;;;15.00;70.52
3780;BME280;1905;52.482;9.802;2022-09-09T03:03:19;100375.03;;;15.01;70.23
3780;BME280;1905;52.482;9.802;2022-09-09T03:05:49;100382.47;;;14.96;70.21
3780;BME280;1905;52.482;9.802;2022-09-09T03:08:17;100378.88;;;14.97;70.43
3780;BME280;1905;52.482;9.802;2022-09-09T03:10:46;100386.72;;;14.98;70.14
3780;BME280;1905;52.482;9.802;2022-09-09T03:13:15;100374.59;;;14.94;69.73
3780;BME280;1905;52.482;9.802;2022-09-09T03:15:43;100384.38;;;14.94;70.03
3780;BME280;1905;52.482;9.802;2022-09-09T03:18:16;100388.00;;;14.93;70.37
3780;BME280;1905;52.482;9.802;2022-09-09T03:20:48;100385.31;;;14.93;69.79
3780;BME280;1905;52.482;9.802;2022-09-09T03:23:17;100385.53;;;14.89;70.36
3780;BME280;1905;52.482;9.802;2022-09-09T03:25:48;100377.56;;;14.89;69.71
3780;BME280;1905;52.482;9.802;2022-09-09T03:28:19;100386.38;;;14.90;69.74
3780;BME280;1905;52.482;9.802;2022-09-09T03:30:48;100382.88;;;14.89;69.95
3780;BME280;1905;52.482;9.802;2022-09-09T03:33:18;100377.56;;;14.89;69.78
3780;BME280;1905;52.482;9.802;2022-09-09T03:35:46;100382.03;;;14.89;69.93
3780;BME280;1905;52.482;9.802;2022-09-09T03:38:16;100382.88;;;14.89;70.07
3780;BME280;1905;52.482;9.802;2022-09-09T03:40:51;100383.63;;;14.92;69.41
3780;BME280;1905;52.482;9.802;2022-09-09T03:43:22;100384.69;;;14.89;69.69
3780;BME280;1905;52.482;9.802;2022-09-09T03:45:51;100382.13;;;14.87;69.60
3780;BME280;1905;52.482;9.802;2022-09-09T03:48:20;100386.50;;;14.88;69.98
3780;BME280;1905;52.482;9.802;2022-09-09T03:50:50;100381.19;;;14.88;69.84
3780;BME280;1905;52.482;9.802;2022-09-09T03:53:20;100387.34;;;14.89;69.81
3780;BME280;1905;52.482;9.802;2022-09-09T03:55:50;100381.19;;;14.88;69.91
3780;BME280;1905;52.482;9.802;2022-09-09T03:58:23;100383.72;;;14.90;69.88
3780;BME280;1905;52.482;9.802;2022-09-09T04:00:55;100386.31;;;14.92;69.15
3780;BME280;1905;52.482;9.802;2022-09-09T04:03:27;100388.19;;;14.89;69.42
3780;BME280;1905;52.482;9.802;2022-09-09T04:05:56;100381.06;;;14.90;69.24
3780;BME280;1905;52.482;9.802;2022-09-09T04:08:26;100377.56;;;14.89;69.34
3780;BME280;1905;52.482;9.802;2022-09-09T04:10:54;100375.66;;;14.92;69.75
3780;BME280;1905;52.482;9.802;2022-09-09T04:13:26;100386.50;;;14.88;69.31
3780;BME280;1905;52.482;9.802;2022-09-09T04:15:57;100386.31;;;14.92;69.41
3780;BME280;1905;52.482;9.802;2022-09-09T04:18:26;100388.19;;;14.89;69.75
3780;BME280;1905;52.482;9.802;2022-09-09T04:20:56;100389.91;;;14.90;69.83
3780;BME280;1905;52.482;9.802;2022-09-09T04:23:27;100389.91;;;14.90;69.64
3780;BME280;1905;52.482;9.802;2022-09-09T04:25:58;100389.78;;;14.92;69.47
3780;BME280;1905;52.482;9.802;2022-09-09T04:28:28;100386.31;;;14.92;69.52
3780;BME280;1905;52.482;9.802;2022-09-09T04:31:05;100386.31;;;14.92;69.30
3780;BME280;1905;52.482;9.802;2022-09-09T04:33:34;100393.31;;;14.93;69.13
3780;BME280;1905;52.482;9.802;2022-09-09T04:36:06;100392.38;;;14.94;69.29
3780;BME280;1905;52.482;9.802;2022-09-09T04:38:35;100396.75;;;14.95;69.35
3780;BME280;1905;52.482;9.802;2022-09-09T04:41:04;100401.09;;;14.96;69.50
3780;BME280;1905;52.482;9.802;2022-09-09T04:43:33;100394.91;;;14.95;69.28
3780;BME280;1905;52.482;9.802;2022-09-09T04:46:02;100396.75;;;14.95;69.13
3780;BME280;1905;52.482;9.802;2022-09-09T04:48:30;100406.50;;;14.94;69.12
3780;BME280;1905;52.482;9.802;2022-09-09T04:51:02;100397.69;;;14.94;69.15
3780;BME280;1905;52.482;9.802;2022-09-09T04:53:32;100402.06;;;14.95;68.83
3780;BME280;1905;52.482;9.802;2022-09-09T04:56:02;100406.41;;;14.96;68.94
3780;BME280;1905;52.482;9.802;2022-09-09T04:58:32;100405.47;;;14.97;69.07
3780;BME280;1905;52.482;9.802;2022-09-09T05:01:05;100405.47;;;14.97;68.69
3780;BME280;1905;52.482;9.802;2022-09-09T05:03:33;100411.53;;;14.99;68.63
3780;BME280;1905;52.482;9.802;2022-09-09T05:06:06;100407.16;;;14.98;68.55
3780;BME280;1905;52.482;9.802;2022-09-09T05:08:36;100408.88;;;14.99;69.12
3780;BME280;1905;52.482;9.802;2022-09-09T05:11:11;100409.59;;;15.01;68.70
3780;BME280;1905;52.482;9.802;2022-09-09T05:13:39;100413.97;;;15.02;69.18
3780;BME280;1905;52.482;9.802;2022-09-09T05:16:07;100413.13;;;15.01;69.16
3780;BME280;1905;52.482;9.802;2022-09-09T05:18:37;100410.38;;;15.03;69.14
3780;BME280;1905;52.482;9.802;2022-09-09T05:21:07;100413.97;;;15.02;68.95
3780;BME280;1905;52.482;9.802;2022-09-09T05:23:35;100417.19;;;15.07;68.83
3780;BME280;1905;52.482;9.802;2022-09-09T05:26:03;100408.47;;;15.05;68.88
3780;BME280;1905;52.482;9.802;2022-09-09T05:28:34;100405.81;;;15.05;69.28
3780;BME280;1905;52.482;9.802;2022-09-09T05:31:04;100410.38;;;15.03;68.67
3780;BME280;1905;52.482;9.802;2022-09-09T05:33:35;100411.00;;;15.06;69.14
3780;BME280;1905;52.482;9.802;2022-09-09T05:36:05;100417.00;;;15.10;68.46
3780;BME280;1905;52.482;9.802;2022-09-09T05:38:35;100415.28;;;15.09;69.11
3780;BME280;1905;52.482;9.802;2022-09-09T05:41:04;100421.44;;;15.09;69.07
3780;BME280;1905;52.482;9.802;2022-09-09T05:43:32;100416.03;;;15.11;68.72
3780;BME280;1905;52.482;9.802;2022-09-09T05:46:03;100410.50;;;15.14;68.59
3780;BME280;1905;52.482;9.802;2022-09-09T05:48:34;100415.81;;;15.14;68.58
3780;BME280;1905;52.482;9.802;2022-09-09T05:51:02;100426.25;;;15.17;68.50
3780;BME280;1905;52.482;9.802;2022-09-09T05:53:30;100419.97;;;15.18;69.05
3780;BME280;1905;52.482;9.802;2022-09-09T05:56:03;100412.94;;;15.17;68.70
3780;BME280;1905;52.482;9.802;2022-09-09T05:58:34;100419.59;;;15.24;68.66
3780;BME280;1905;52.482;9.802;2022-09-09T06:01:06;100426.59;;;15.25;68.98
3780;BME280;1905;52.482;9.802;2022-09-09T06:03:35;100429.38;;;15.23;68.59
3780;BME280;1905;52.482;9.802;2022-09-09T06:06:05;100429.16;;;15.26;68.78
3780;BME280;1905;52.482;9.802;2022-09-09T06:08:34;100425.66;;;15.26;69.22
3780;BME280;1905;52.482;9.802;2022-09-09T06:11:08;100437.03;;;15.28;68.71
3780;BME280;1905;52.482;9.802;2022-09-09T06:13:37;100435.88;;;15.32;69.01
3780;BME280;1905;52.482;9.802;2022-09-09T06:16:08;100441.94;;;15.34;68.75
3780;BME280;1905;52.482;9.802;2022-09-09T06:18:39;100431.09;;;15.37;68.67
3780;BME280;1905;52.482;9.802;2022-09-09T06:21:11;100437.38;;;15.36;69.41
3780;BME280;1905;52.482;9.802;2022-09-09T06:23:39;100431.84;;;15.39;70.42
3780;BME280;1905;52.482;9.802;2022-09-09T06:26:12;100434.31;;;15.42;68.50
3780;BME280;1905;52.482;9.802;2022-09-09T06:28:40;100431.56;;;15.43;69.27
3780;BME280;1905;52.482;9.802;2022-09-09T06:31:10;100436.75;;;15.45;69.41
3780;BME280;1905;52.482;9.802;2022-09-09T06:33:41;100433.94;;;15.48;69.47
3780;BME280;1905;52.482;9.802;2022-09-09T06:36:12;100428.19;;;15.54;69.96
3780;BME280;1905;52.482;9.802;2022-09-09T06:38:41;100433.06;;;15.60;70.82
3780;BME280;1905;52.482;9.802;2022-09-09T06:41:13;100438.63;;;15.57;72.02
3780;BME280;1905;52.482;9.802;2022-09-09T06:43:43;100434.91;;;15.60;73.96
3780;BME280;1905;52.482;9.802;2022-09-09T06:46:13;100431.50;;;15.70;74.72
3780;BME280;1905;52.482;9.802;2022-09-09T06:48:43;100435.97;;;15.82;75.67
3780;BME280;1905;52.482;9.802;2022-09-09T06:51:15;100431.41;;;15.84;75.46
3780;BME280;1905;52.482;9.802;2022-09-09T06:53:45;100433.84;;;15.87;75.98
3780;BME280;1905;52.482;9.802;2022-09-09T06:56:25;100430.97;;;15.90;76.59
3780;BME280;1905;52.482;9.802;2022-09-09T06:58:58;100428.81;;;15.95;77.83
3780;BME280;1905;52.482;9.802;2022-09-09T07:01:30;100432.25;;;15.97;77.76
3780;BME280;1905;52.482;9.802;2022-09-09T07:04:02;100420.31;;;16.03;78.98
3780;BME280;1905;52.482;9.802;2022-09-09T07:06:37;100432.06;;;16.00;78.47
3780;BME280;1905;52.482;9.802;2022-09-09T07:09:08;100430.78;;;16.06;78.42
3780;BME280;1905;52.482;9.802;2022-09-09T07:11:41;100430.31;;;16.12;78.86
3780;BME280;1905;52.482;9.802;2022-09-09T07:14:10;100431.81;;;16.16;79.30
3780;BME280;1905;52.482;9.802;2022-09-09T07:16:39;100435.75;;;16.23;79.18
3780;BME280;1905;52.482;9.802;2022-09-09T07:19:09;100436.38;;;16.27;77.36
3780;BME280;1905;52.482;9.802;2022-09-09T07:21:37;100445.63;;;16.34;78.02
3780;BME280;1905;52.482;9.802;2022-09-09T07:24:07;100437.31;;;16.38;77.44
3780;BME280;1905;52.482;9.802;2022-09-09T07:26:40;100440.38;;;16.45;77.17
3780;BME280;1905;52.482;9.802;2022-09-09T07:29:08;100448.91;;;16.50;76.38
3780;BME280;1905;52.482;9.802;2022-09-09T07:31:38;100443.69;;;16.61;77.86
3780;BME280;1905;52.482;9.802;2022-09-09T07:34:10;100446.34;;;16.61;75.90
3780;BME280;1905;52.482;9.802;2022-09-09T07:36:39;100444.97;;;16.68;74.93
3780;BME280;1905;52.482;9.802;2022-09-09T07:39:12;100447.94;;;16.76;76.94
3780;BME280;1905;52.482;9.802;2022-09-09T07:41:48;100444.81;;;16.82;76.63
3780;BME280;1905;52.482;9.802;2022-09-09T07:44:20;100444.34;;;16.88;77.10
3780;BME280;1905;52.482;9.802;2022-09-09T07:46:53;100444.84;;;16.93;75.65
3780;BME280;1905;52.482;9.802;2022-09-09T07:49:25;100440.78;;;17.00;77.18
3780;BME280;1905;52.482;9.802;2022-09-09T07:51:59;100446.50;;;17.07;76.59
3780;BME280;1905;52.482;9.802;2022-09-09T07:54:28;100451.63;;;17.10;76.75
3780;BME280;1905;52.482;9.802;2022-09-09T07:56:57;100442.19;;;17.17;76.63
3780;BME280;1905;52.482;9.802;2022-09-09T07:59:28;100446.69;;;17.16;73.84
3780;BME280;1905;52.482;9.802;2022-09-09T08:01:57;100443.22;;;17.27;77.05
3780;BME280;1905;52.482;9.802;2022-09-09T08:04:28;100441.03;;;17.32;78.31
3780;BME280;1905;52.482;9.802;2022-09-09T08:06:58;100435.34;;;17.37;76.70
3780;BME280;1905;52.482;9.802;2022-09-09T08:09:27;100447.28;;;17.44;78.58
3780;BME280;1905;52.482;9.802;2022-09-09T08:12:04;100440.00;;;17.46;78.33
3780;BME280;1905;52.482;9.802;2022-09-09T08:14:34;100449.88;;;17.56;78.19
3780;BME280;1905;52.482;9.802;2022-09-09T08:17:02;100448.41;;;17.52;76.37
3780;BME280;1905;52.482;9.802;2022-09-09T08:19:32;100445.84;;;17.51;76.33
3780;BME280;1905;52.482;9.802;2022-09-09T08:22:04;100451.16;;;17.63;78.25
3780;BME280;1905;52.482;9.802;2022-09-09T08:24:33;100449.19;;;17.65;77.42
3780;BME280;1905;52.482;9.802;2022-09-09T08:27:01;100452.13;;;17.73;77.42
3780;BME280;1905;52.482;9.802;2022-09-09T08:29:30;100448.88;;;17.81;76.67
3780;BME280;1905;52.482;9.802;2022-09-09T08:31:58;100450.34;;;17.85;75.65
3780;BME280;1905;52.482;9.802;2022-09-09T08:34:27;100445.50;;;17.90;76.73
3780;BME280;1905;52.482;9.802;2022-09-09T08:36:58;100445.97;;;17.95;75.97
3780;BME280;1905;52.482;9.802;2022-09-09T08:39:34;100439.94;;;18.04;76.56
3780;BME280;1905;52.482;9.802;2022-09-09T08:42:20;100451.81;;;18.11;75.04
3780;BME280;1905;52.482;9.802;2022-09-09T08:45:23;100460.31;;;18.16;73.84
3780;BME280;1905;52.482;9.802;2022-09-09T08:48:04;100458.38;;;18.29;76.00
3780;BME280;1905;52.482;9.802;2022-09-09T08:50:37;100455.22;;;18.35;74.61
3780;BME280;1905;52.482;9.802;2022-09-09T08:53:22;100460.22;;;18.51;76.61
3780;BME280;1905;52.482;9.802;2022-09-09T08:55:53;100470.06;;;18.62;76.11
3780;BME280;1905;52.482;9.802;2022-09-09T08:58:31;100473.97;;;18.69;75.51
3780;BME280;1905;52.482;9.802;2022-09-09T09:01:17;100468.84;;;18.77;74.66
3780;BME280;1905;52.482;9.802;2022-09-09T09:03:54;100472.47;;;18.87;73.97
3780;BME280;1905;52.482;9.802;2022-09-09T09:06:38;100475.38;;;18.95;73.55
3780;BME280;1905;52.482;9.802;2022-09-09T09:09:15;100480.00;;;19.04;74.45
3780;BME280;1905;52.482;9.802;2022-09-09T09:11:51;100480.91;;;19.14;72.88
3780;BME280;1905;52.482;9.802;2022-09-09T09:14:21;100482.13;;;19.21;73.77
3780;BME280;1905;52.482;9.802;2022-09-09T09:16:57;100479.94;;;19.26;73.18
3780;BME280;1905;52.482;9.802;2022-09-09T09:19:28;100488.19;;;19.34;73.67
3780;BME280;1905;52.482;9.802;2022-09-09T09:22:02;100483.31;;;19.39;72.47
3780;BME280;1905;52.482;9.802;2022-09-09T09:24:41;100477.56;;;19.44;72.26
3780;BME280;1905;52.482;9.802;2022-09-09T09:27:14;100483.53;;;19.47;71.52
3780;BME280;1905;52.482;9.802;2022-09-09T09:29:48;100481.31;;;19.52;70.77
3780;BME280;1905;52.482;9.802;2022-09-09T09:32:39;100482.47;;;19.59;71.28
3780;BME280;1905;52.482;9.802;2022-09-09T09:35:11;100484.78;;;19.64;70.99
3780;BME280;1905;52.482;9.802;2022-09-09T09:37:41;100488.03;;;19.68;69.93
3780;BME280;1905;52.482;9.802;2022-09-09T09:40:30;100481.91;;;19.77;69.67
3780;BME280;1905;52.482;9.802;2022-09-09T09:42:59;100486.31;;;19.78;68.97
3780;BME280;1905;52.482;9.802;2022-09-09T09:45:33;100482.69;;;19.88;69.37
3780;BME280;1905;52.482;9.802;2022-09-09T09:48:06;100483.75;;;19.97;69.91
3780;BME280;1905;52.482;9.802;2022-09-09T09:50:46;100478.13;;;20.00;69.89
3780;BME280;1905;52.482;9.802;2022-09-09T09:53:22;100482.22;;;20.04;69.29
3780;BME280;1905;52.482;9.802;2022-09-09T09:55:56;100476.59;;;20.07;67.67
3780;BME280;1905;52.482;9.802;2022-09-09T09:58:26;100477.75;;;20.14;68.07
3780;BME280;1905;52.482;9.802;2022-09-09T10:00:56;100470.91;;;20.21;69.32
3780;BME280;1905;52.482;9.802;2022-09-09T10:03:29;100479.28;;;20.28;68.71
3780;BME280;1905;52.482;9.802;2022-09-09T10:05:59;100464.75;;;20.30;67.59
3780;BME280;1905;52.482;9.802;2022-09-09T10:08:27;100454.22;;;20.38;69.27
3780;BME280;1905;52.482;9.802;2022-09-09T10:11:21;100460.06;;;20.53;67.73
3780;BME280;1905;52.482;9.802;2022-09-09T10:14:03;100459.06;;;20.54;67.52
3780;BME280;1905;52.482;9.802;2022-09-09T10:16:45;100454.00;;;20.60;68.27
3780;BME280;1905;52.482;9.802;2022-09-09T10:19:29;100451.78;;;20.65;68.19
3780;BME280;1905;52.482;9.802;2022-09-09T10:22:04;100451.22;;;20.71;68.08
3780;BME280;1905;52.482;9.802;2022-09-09T10:27:48;100445.72;;;20.83;67.55
3780;BME280;1905;52.482;9.802;2022-09-09T10:30:33;100445.59;;;20.84;66.88
3780;BME280;1905;52.482;9.802;2022-09-09T10:33:09;100443.91;;;20.93;67.07
3780;BME280;1905;52.482;9.802;2022-09-09T10:35:44;100447.31;;;20.95;67.44
3780;BME280;1905;52.482;9.802;2022-09-09T10:38:17;100448.59;;;21.00;67.72
3780;BME280;1905;52.482;9.802;2022-09-09T10:41:13;100446.22;;;21.07;67.44
3780;BME280;1905;52.482;9.802;2022-09-09T10:44:15;100448.34;;;21.13;67.14
3780;BME280;1905;52.482;9.802;2022-09-09T10:46:52;100440.03;;;21.16;66.55
3780;BME280;1905;52.482;9.802;2022-09-09T10:49:44;100426.75;;;21.14;67.06
3780;BME280;1905;52.482;9.802;2022-09-09T10:52:23;100433.69;;;21.17;66.53
3780;BME280;1905;52.482;9.802;2022-09-09T10:54:58;100434.38;;;21.19;65.95
3780;BME280;1905;52.482;9.802;2022-09-09T10:57:31;100438.03;;;21.18;66.29
3780;BME280;1905;52.482;9.802;2022-09-09T11:00:04;100448.78;;;21.18;65.65
3780;BME280;1905;52.482;9.802;2022-09-09T11:02:34;100453.59;;;21.24;65.92
3780;BME280;1905;52.482;9.802;2022-09-09T11:05:04;100454.19;;;21.27;65.85
3780;BME280;1905;52.482;9.802;2022-09-09T11:07:39;100469.16;;;21.30;65.56
3780;BME280;1905;52.482;9.802;2022-09-09T11:10:18;100451.34;;;21.29;64.81
3780;BME280;1905;52.482;9.802;2022-09-09T11:12:54;100442.56;;;21.27;64.74
3780;BME280;1905;52.482;9.802;2022-09-09T11:15:29;100440.31;;;21.32;65.88
3780;BME280;1905;52.482;9.802;2022-09-09T11:18:01;100442.44;;;21.38;65.20
3780;BME280;1905;52.482;9.802;2022-09-09T11:20:32;100445.66;;;21.42;65.79
3780;BME280;1905;52.482;9.802;2022-09-09T11:23:05;100442.44;;;21.38;65.53
3780;BME280;1905;52.482;9.802;2022-09-09T11:25:39;100437.75;;;21.40;65.07
3780;BME280;1905;52.482;9.802;2022-09-09T11:28:25;100435.06;;;21.40;64.92
3780;BME280;1905;52.482;9.802;2022-09-09T11:31:05;100428.44;;;21.44;64.67
3780;BME280;1905;52.482;9.802;2022-09-09T11:33:55;100431.13;;;21.44;65.13
3780;BME280;1905;52.482;9.802;2022-09-09T11:36:43;100449.38;;;21.41;64.72
3780;BME280;1905;52.482;9.802;2022-09-09T11:39:33;100473.69;;;21.39;64.72
3780;BME280;1905;52.482;9.802;2022-09-09T11:42:12;100492.34;;;21.31;65.91
3780;BME280;1905;52.482;9.802;2022-09-09T11:44:44;100492.63;;;21.28;66.05
3780;BME280;1905;52.482;9.802;2022-09-09T11:47:23;100492.94;;;21.25;64.95
3780;BME280;1905;52.482;9.802;2022-09-09T11:50:07;100483.59;;;21.19;65.13
3780;BME280;1905;52.482;9.802;2022-09-09T11:52:38;100484.72;;;21.17;65.44
3780;BME280;1905;52.482;9.802;2022-09-09T11:55:11;100474.25;;;21.14;65.34
3780;BME280;1905;52.482;9.802;2022-09-09T11:57:39;100473.19;;;21.05;65.04
3780;BME280;1905;52.482;9.802;2022-09-09T12:00:29;100464.56;;;21.02;65.04
3780;BME280;1905;52.482;9.802;2022-09-09T12:02:59;100470.47;;;20.96;65.62
3780;BME280;1905;52.482;9.802;2022-09-09T12:05:35;100467.09;;;20.94;64.95
3780;BME280;1905;52.482;9.802;2022-09-09T12:08:05;100473.00;;;20.88;65.16
3780;BME280;1905;52.482;9.802;2022-09-09T12:10:38;100476.97;;;20.84;64.85
3780;BME280;1905;52.482;9.802;2022-09-09T12:13:40;100473.59;;;20.82;64.84
3780;BME280;1905;52.482;9.802;2022-09-09T12:16:31;100484.28;;;20.72;64.89
3780;BME280;1905;52.482;9.802;2022-09-09T12:19:14;100484.69;;;20.67;65.18
3780;BME280;1905;52.482;9.802;2022-09-09T12:21:53;100485.22;;;20.61;64.98
3780;BME280;1905;52.482;9.802;2022-09-09T12:24:28;100491.84;;;20.57;65.14
3780;BME280;1905;52.482;9.802;2022-09-09T12:27:05;100498.63;;;20.52;65.36
3780;BME280;1905;52.482;9.802;2022-09-09T12:29:41;100495.63;;;20.45;65.45
3780;BME280;1905;52.482;9.802;2022-09-09T12:32:15;100496.84;;;20.41;65.64
3780;BME280;1905;52.482;9.802;2022-09-09T12:34:47;100497.16;;;20.38;65.48
3780;BME280;1905;52.482;9.802;2022-09-09T12:37:23;100477.91;;;20.33;65.63
3780;BME280;1905;52.482;9.802;2022-09-09T12:39:57;100481.84;;;20.29;65.87
3780;BME280;1905;52.482;9.802;2022-09-09T12:42:27;100473.09;;;20.27;65.83
3780;BME280;1905;52.482;9.802;2022-09-09T12:45:00;100473.34;;;20.24;65.92
3780;BME280;1905;52.482;9.802;2022-09-09T12:47:51;100461.16;;;20.20;66.02
3780;BME280;1905;52.482;9.802;2022-09-09T12:50:22;100462.84;;;20.21;66.31
3780;BME280;1905;52.482;9.802;2022-09-09T12:52:53;100468.00;;;20.24;66.21
3780;BME280;1905;52.482;9.802;2022-09-09T12:55:24;100466.16;;;20.25;66.61
3780;BME280;1905;52.482;9.802;2022-09-09T12:57:54;100469.13;;;20.31;66.14
3780;BME280;1905;52.482;9.802;2022-09-09T13:00:23;100463.94;;;20.39;66.87
3780;BME280;1905;52.482;9.802;2022-09-09T13:03:02;100461.31;;;20.49;66.63
3780;BME280;1905;52.482;9.802;2022-09-09T13:05:37;100468.69;;;20.56;66.72
3780;BME280;1905;52.482;9.802;2022-09-09T13:08:08;100461.66;;;20.65;66.39
3780;BME280;1905;52.482;9.802;2022-09-09T13:10:39;100453.50;;;20.76;66.43
3780;BME280;1905;52.482;9.802;2022-09-09T13:13:35;100448.84;;;20.88;66.60
3780;BME280;1905;52.482;9.802;2022-09-09T13:16:05;100445.34;;;20.97;66.34
3780;BME280;1905;52.482;9.802;2022-09-09T13:18:39;100451.00;;;21.03;65.73
3780;BME280;1905;52.482;9.802;2022-09-09T13:21:08;100448.78;;;21.18;64.95
3780;BME280;1905;52.482;9.802;2022-09-09T13:23:49;100443.97;;;21.31;64.74
3780;BME280;1905;52.482;9.802;2022-09-09T13:26:23;100441.44;;;21.39;64.56
3780;BME280;1905;52.482;9.802;2022-09-09T13:28:53;100435.50;;;21.45;64.39
3780;BME280;1905;52.482;9.802;2022-09-09T13:31:24;100432.94;;;21.53;64.00
3780;BME280;1905;52.482;9.802;2022-09-09T13:33:54;100427.97;;;21.58;63.75
3780;BME280;1905;52.482;9.802;2022-09-09T13:36:29;100429.97;;;21.66;63.65
3780;BME280;1905;52.482;9.802;2022-09-09T13:38:59;100429.53;;;21.70;63.47
3780;BME280;1905;52.482;9.802;2022-09-09T13:41:30;100420.50;;;21.71;63.65
3780;BME280;1905;52.482;9.802;2022-09-09T13:44:01;100428.09;;;21.76;63.58
3780;BME280;1905;52.482;9.802;2022-09-09T13:46:32;100418.34;;;21.75;63.37
3780;BME280;1905;52.482;9.802;2022-09-09T13:49:02;100417.47;;;21.74;63.74
3780;BME280;1905;52.482;9.802;2022-09-09T13:51:33;100415.13;;;21.71;63.55